ROMMA est une association bénévole à but non lucratif. Votre soutien est indispensable : ADHERER à ROMMA ou FAIRE un DON

Miribel-les-Echelles - (38, Isère)

Massif de la Chartreuse (760 m)   Longitude: 05° 41' 54'' E   Latitude: 45° 26' 40'' N Station romma n°22
 

Détail journalier du     <<     >>

Température Precipitation Humidité Pression Vent Dir Rafale Dir. rafale Ensol.
Heure (°C) (mm) (%) (hPa) (km/h) (km/h) (min)
01:00 6.409510212O10O0
02:00 6.209510212ONO5ONO0
03:00 6.209510211ONO6ONO0
04:00 6.809610202ONO5ONO0
05:00 6.7095102003ONO0
06:00 6.5095102003ENE0
07:00 6.009510202ONO6ONO0
08:00 6.2095102003O0
09:00 8.7094102005SSE60
10:00 9.708610202ESE8SSE60
11:00 12.707910192SE6E60
12:00 12.108810193ESE10E30
13:00 13.808310192ESE10ESE60
14:00 15.006810183E11E60
15:00 16.107110182E10E60
16:00 17.804710183ESE13OSO60
17:00 17.405510172SE8SSE60
18:00 16.706810162SE6SE60
19:00 14.207610172ENE6S0
20:00 13.608110171NE13ENE0
21:00 15.206410178ENE34SO0
22:00 14.7071101710ENE35SO0
23:00 15.206710176SO24SSO0
minuit 15.8066101710SO26SO0

Graphique du 08-10-2019

 

Serveur OMMA